createdAt,value
2019-02-04T00:02:19.278Z,8.97
2019-02-04T00:04:52.779Z,8.33
2019-02-04T00:07:26.482Z,9.40
2019-02-04T00:09:59.982Z,8.80
2019-02-04T00:12:33.501Z,10.70
2019-02-04T00:15:08.862Z,8.37
2019-02-04T00:17:42.663Z,10.43
2019-02-04T00:20:16.153Z,7.77
2019-02-04T00:22:49.687Z,8.33
2019-02-04T00:25:23.201Z,9.57
2019-02-04T00:27:57.053Z,8.90
2019-02-04T00:30:30.524Z,7.47
2019-02-04T00:33:04.081Z,9.33
2019-02-04T00:35:37.552Z,8.03
2019-02-04T00:38:11.093Z,8.67
2019-02-04T00:40:44.504Z,7.53
2019-02-04T00:43:17.945Z,7.20
2019-02-04T00:45:51.358Z,8.80
2019-02-04T00:48:24.802Z,9.17
2019-02-04T00:50:58.281Z,7.80
2019-02-04T00:53:31.797Z,9.07
2019-02-04T00:56:05.606Z,8.23
2019-02-04T00:58:39.083Z,9.63
2019-02-04T01:01:12.868Z,9.63
2019-02-04T01:03:46.508Z,8.40
2019-02-04T01:06:19.935Z,8.70
2019-02-04T01:08:55.070Z,7.63
2019-02-04T01:11:28.552Z,7.97
2019-02-04T01:14:01.927Z,7.83
2019-02-04T01:16:35.260Z,7.97
2019-02-04T01:19:08.709Z,7.90
2019-02-04T01:21:42.189Z,8.63
2019-02-04T01:24:15.727Z,9.30
2019-02-04T01:26:49.148Z,7.33
2019-02-04T01:29:22.512Z,9.77
2019-02-04T01:31:56.002Z,7.53
2019-02-04T01:34:29.472Z,7.37
2019-02-04T01:37:02.913Z,8.20
2019-02-04T01:39:36.253Z,9.23
2019-02-04T01:42:09.766Z,7.37
2019-02-04T01:44:43.391Z,9.23
2019-02-04T01:47:16.759Z,9.03
2019-02-04T01:49:50.192Z,7.63
2019-02-04T01:52:23.629Z,8.53
2019-02-04T01:54:57.323Z,7.40
2019-02-04T01:57:30.756Z,7.00
2019-02-04T02:00:10.222Z,9.03
2019-02-04T02:02:43.675Z,8.00
2019-02-04T02:05:17.466Z,9.83
2019-02-04T02:07:50.877Z,10.10
2019-02-04T02:10:25.659Z,10.50
2019-02-04T02:12:59.180Z,9.10
2019-02-04T02:15:32.562Z,7.80
2019-02-04T02:18:05.991Z,7.20
2019-02-04T02:20:39.392Z,7.87
2019-02-04T02:23:12.798Z,7.40
2019-02-04T02:25:46.188Z,8.43
2019-02-04T02:28:19.536Z,7.63
2019-02-04T02:30:52.929Z,9.07
2019-02-04T02:33:26.275Z,9.53
2019-02-04T02:35:59.699Z,7.03
2019-02-04T02:38:33.036Z,7.57
2019-02-04T02:41:06.413Z,8.03
2019-02-04T02:43:39.757Z,8.13
2019-02-04T02:46:13.161Z,8.80
2019-02-04T02:48:46.571Z,7.60
2019-02-04T02:51:19.898Z,8.37
2019-02-04T02:53:53.256Z,7.60
2019-02-04T02:56:26.578Z,7.20
2019-02-04T02:58:59.928Z,7.37
2019-02-04T03:01:33.239Z,6.97
2019-02-04T03:04:06.724Z,8.17
2019-02-04T03:06:40.082Z,7.63
2019-02-04T03:09:13.431Z,7.57
2019-02-04T03:11:46.926Z,7.27
2019-02-04T03:14:20.306Z,10.03
2019-02-04T03:16:53.698Z,7.47
2019-02-04T03:19:27.061Z,7.90
2019-02-04T03:22:00.817Z,7.40
2019-02-04T03:24:34.188Z,8.37
2019-02-04T03:27:07.481Z,7.90
2019-02-04T03:29:40.841Z,8.57
2019-02-04T03:32:14.334Z,7.50
2019-02-04T03:34:47.754Z,8.07
2019-02-04T03:37:21.205Z,9.07
2019-02-04T03:39:54.622Z,8.50
2019-02-04T03:42:28.001Z,7.87
2019-02-04T03:45:01.518Z,7.77
2019-02-04T03:47:34.805Z,6.90
2019-02-04T03:50:10.804Z,7.63
2019-02-04T03:52:44.260Z,8.17
2019-02-04T03:55:18.447Z,7.43
2019-02-04T03:57:51.843Z,9.53
2019-02-04T04:00:35.693Z,7.23
2019-02-04T04:03:09.010Z,7.93
2019-02-04T04:05:42.434Z,8.50
2019-02-04T04:08:15.744Z,8.43
2019-02-04T04:10:49.097Z,7.50
2019-02-04T04:13:22.434Z,8.23
2019-02-04T04:15:55.776Z,8.23
2019-02-04T04:18:29.098Z,8.10
2019-02-04T04:21:02.434Z,7.90
2019-02-04T04:23:35.762Z,8.67
2019-02-04T04:26:09.447Z,9.23
2019-02-04T04:28:42.845Z,10.80
2019-02-04T04:31:16.200Z,8.47
2019-02-04T04:33:49.519Z,9.47
2019-02-04T04:36:22.892Z,8.80
2019-02-04T04:38:56.208Z,9.63
2019-02-04T04:41:29.556Z,8.87
2019-02-04T04:44:02.994Z,7.47
2019-02-04T04:46:36.331Z,8.40
2019-02-04T04:49:09.658Z,8.07
2019-02-04T04:51:43.004Z,8.40
2019-02-04T04:54:16.329Z,7.00
2019-02-04T04:56:49.746Z,9.30
2019-02-04T04:59:23.232Z,9.10
2019-02-04T05:01:56.620Z,8.97
2019-02-04T05:04:29.968Z,8.00
2019-02-04T05:07:03.289Z,7.63
2019-02-04T05:09:36.630Z,7.13
2019-02-04T05:12:10.019Z,11.20
2019-02-04T05:14:43.428Z,7.97
2019-02-04T05:17:16.744Z,9.67
2019-02-04T05:19:50.104Z,10.80
2019-02-04T05:22:23.426Z,8.70
2019-02-04T05:24:56.775Z,10.53
2019-02-04T05:27:30.098Z,13.33
2019-02-04T05:30:04.693Z,11.17
2019-02-04T05:32:38.030Z,12.37
2019-02-04T05:35:11.631Z,12.73
2019-02-04T05:37:45.029Z,10.57
2019-02-04T05:40:18.626Z,9.53
2019-02-04T05:42:52.294Z,11.27
2019-02-04T05:45:25.647Z,12.87
2019-02-04T05:47:58.996Z,10.80
2019-02-04T05:50:32.344Z,8.97
2019-02-04T05:53:05.736Z,9.23
2019-02-04T05:55:39.184Z,9.13
2019-02-04T05:58:12.504Z,10.23
2019-02-04T06:00:46.626Z,10.83
2019-02-04T06:03:20.085Z,10.87
2019-02-04T06:05:53.460Z,10.00
2019-02-04T06:08:26.782Z,9.87
2019-02-04T06:11:00.202Z,10.37
2019-02-04T06:13:33.523Z,11.67
2019-02-04T06:16:07.279Z,11.20
2019-02-04T06:18:40.670Z,11.97
2019-02-04T06:21:14.094Z,10.07
2019-02-04T06:23:47.562Z,12.30
2019-02-04T06:26:21.299Z,16.63
2019-02-04T06:28:54.695Z,14.50
2019-02-04T06:31:28.054Z,16.10
2019-02-04T06:34:01.389Z,17.73
2019-02-04T06:36:34.805Z,16.00
2019-02-04T06:39:10.242Z,15.13
2019-02-04T06:41:43.592Z,15.27
2019-02-04T06:44:16.981Z,15.13
2019-02-04T06:46:50.329Z,16.53
2019-02-04T06:49:23.678Z,14.90
2019-02-04T06:51:57.101Z,15.00
2019-02-04T06:54:30.423Z,17.80
2019-02-04T06:57:03.961Z,17.83
2019-02-04T06:59:37.663Z,19.10
2019-02-04T07:02:11.084Z,17.63
2019-02-04T07:04:44.414Z,21.17
2019-02-04T07:07:17.774Z,21.37
2019-02-04T07:09:51.124Z,18.70
2019-02-04T07:12:24.569Z,18.70
2019-02-04T07:14:57.892Z,21.13
2019-02-04T07:17:31.243Z,19.50
2019-02-04T07:20:07.578Z,13.40
2019-02-04T07:22:40.936Z,15.23
2019-02-04T07:25:16.099Z,12.83
2019-02-04T07:27:49.519Z,12.37
2019-02-04T07:30:25.645Z,12.77
2019-02-04T07:32:59.341Z,14.00
2019-02-04T07:35:32.707Z,13.03
2019-02-04T07:38:06.109Z,13.93
2019-02-04T07:40:39.430Z,12.77
2019-02-04T07:43:12.790Z,12.83
2019-02-04T07:45:46.185Z,11.33
2019-02-04T07:48:19.538Z,11.53
2019-02-04T07:50:52.951Z,10.97
2019-02-04T07:53:26.378Z,16.50
2019-02-04T07:55:59.700Z,17.23
2019-02-04T07:58:33.063Z,17.50
2019-02-04T08:01:06.389Z,16.73
2019-02-04T08:03:39.742Z,16.77
2019-02-04T08:06:13.411Z,17.73
2019-02-04T08:08:46.756Z,15.30
2019-02-04T08:11:20.113Z,17.60
2019-02-04T08:13:53.440Z,17.70
2019-02-04T08:16:26.917Z,18.17
2019-02-04T08:19:00.201Z,19.43
2019-02-04T08:21:33.623Z,18.87
2019-02-04T08:24:07.071Z,20.37
2019-02-04T08:26:40.418Z,19.87
2019-02-04T08:29:13.745Z,19.00
2019-02-04T08:31:47.132Z,19.17
2019-02-04T08:34:20.530Z,11.37
2019-02-04T08:36:53.898Z,13.07
2019-02-04T08:39:27.377Z,11.53
2019-02-04T08:42:00.820Z,12.13
2019-02-04T08:44:34.143Z,15.00
2019-02-04T08:47:07.519Z,9.57
2019-02-04T08:49:40.979Z,8.73
2019-02-04T08:52:14.782Z,9.07
2019-02-04T08:54:48.099Z,9.63
2019-02-04T08:57:21.446Z,9.57
2019-02-04T08:59:54.931Z,8.47
2019-02-04T09:02:28.337Z,8.47
2019-02-04T09:05:01.670Z,9.40
2019-02-04T09:07:35.089Z,8.60
2019-02-04T09:10:11.580Z,8.30
2019-02-04T09:12:44.929Z,8.23
2019-02-04T09:15:18.661Z,9.13
2019-02-04T09:17:52.153Z,8.57
2019-02-04T09:20:25.718Z,14.80
2019-02-04T09:22:59.141Z,19.07
2019-02-04T09:25:32.545Z,19.30
2019-02-04T09:28:05.960Z,18.07
2019-02-04T09:30:39.355Z,17.97
2019-02-04T09:33:12.784Z,20.13
2019-02-04T09:35:46.174Z,18.67
2019-02-04T09:38:19.697Z,18.57
2019-02-04T09:40:53.063Z,18.73
2019-02-04T09:43:26.389Z,19.27
2019-02-04T09:45:59.895Z,19.40
2019-02-04T09:48:33.175Z,18.77
2019-02-04T09:51:06.547Z,18.60
2019-02-04T09:53:39.870Z,18.50
2019-02-04T09:56:13.366Z,18.20
2019-02-04T09:58:46.767Z,18.03
2019-02-04T10:01:20.131Z,17.07
2019-02-04T10:03:53.541Z,17.03
2019-02-04T10:06:26.999Z,16.40
2019-02-04T10:09:00.347Z,18.13
2019-02-04T10:11:33.979Z,17.60
2019-02-04T10:14:07.443Z,15.87
2019-02-04T10:16:40.893Z,16.00
2019-02-04T10:19:14.327Z,15.07
2019-02-04T10:21:47.840Z,15.60
2019-02-04T10:24:21.266Z,15.17
2019-02-04T10:26:54.657Z,14.50
2019-02-04T10:29:27.980Z,14.37
2019-02-04T10:32:01.436Z,13.90
2019-02-04T10:34:34.720Z,14.13
2019-02-04T10:37:08.222Z,14.33
2019-02-04T10:39:41.573Z,13.03
2019-02-04T10:42:15.116Z,13.03
2019-02-04T10:44:48.862Z,14.00
2019-02-04T10:47:22.191Z,14.87
2019-02-04T10:49:55.802Z,13.37
2019-02-04T10:52:29.234Z,12.93
2019-02-04T10:55:02.591Z,12.10
2019-02-04T10:57:40.506Z,13.20
2019-02-04T11:00:19.866Z,12.03
2019-02-04T11:02:53.311Z,11.37
2019-02-04T11:05:30.258Z,11.87
2019-02-04T11:08:04.057Z,11.33
2019-02-04T11:10:37.545Z,11.73
2019-02-04T11:13:16.092Z,11.50
2019-02-04T11:15:49.666Z,10.07
2019-02-04T11:18:23.145Z,10.00
2019-02-04T11:20:58.401Z,9.67
2019-02-04T11:23:31.916Z,9.93
2019-02-04T11:26:05.780Z,9.97
2019-02-04T11:28:39.125Z,10.47
2019-02-04T11:31:12.565Z,9.57
2019-02-04T11:33:45.963Z,10.43
2019-02-04T11:36:19.261Z,9.93
2019-02-04T11:38:52.618Z,8.80
2019-02-04T11:41:26.123Z,8.63
2019-02-04T11:43:59.493Z,8.70
2019-02-04T11:46:32.867Z,7.90
2019-02-04T11:49:06.207Z,7.90
2019-02-04T11:51:39.529Z,7.97
2019-02-04T11:54:12.943Z,7.37
2019-02-04T11:56:46.310Z,7.63
2019-02-04T11:59:19.899Z,7.23
2019-02-04T12:01:53.387Z,6.77
2019-02-04T12:04:26.791Z,6.70
2019-02-04T12:07:00.135Z,7.37
2019-02-04T12:09:33.526Z,6.80
2019-02-04T12:12:07.032Z,6.83
2019-02-04T12:14:40.422Z,5.70
2019-02-04T12:17:13.893Z,6.50
2019-02-04T12:19:47.219Z,5.80
2019-02-04T12:22:20.672Z,6.53
2019-02-04T12:24:53.982Z,5.57
2019-02-04T12:27:32.089Z,6.03
2019-02-04T12:30:02.467Z,5.40
2019-02-04T12:32:36.182Z,5.67
2019-02-04T12:35:11.434Z,5.63
2019-02-04T12:37:44.848Z,5.13
2019-02-04T12:40:18.398Z,5.03
2019-02-04T12:42:52.092Z,5.00
2019-02-04T12:45:36.639Z,4.70
2019-02-04T12:48:10.136Z,4.80
2019-02-04T12:50:43.521Z,5.27
2019-02-04T12:53:17.246Z,5.00
2019-02-04T12:55:50.549Z,4.87
2019-02-04T12:58:23.971Z,4.30
2019-02-04T13:00:57.350Z,4.63
2019-02-04T13:03:30.697Z,4.70
2019-02-04T13:06:04.675Z,4.90
2019-02-04T13:08:38.018Z,4.97
2019-02-04T13:11:11.409Z,5.10
2019-02-04T13:13:44.751Z,4.33
2019-02-04T13:16:18.058Z,4.37
2019-02-04T13:18:51.408Z,4.33
2019-02-04T13:21:24.723Z,4.67
2019-02-04T13:23:58.064Z,5.13
2019-02-04T13:26:31.525Z,4.40
2019-02-04T13:29:05.021Z,5.17
2019-02-04T13:31:38.422Z,4.70
2019-02-04T13:34:11.826Z,5.00
2019-02-04T13:36:45.217Z,4.90
2019-02-04T13:39:18.566Z,5.23
2019-02-04T13:41:51.899Z,5.27
2019-02-04T13:44:25.250Z,5.40
2019-02-04T13:46:58.669Z,6.37
2019-02-04T13:49:32.149Z,6.77
2019-02-04T13:52:05.508Z,6.23
2019-02-04T13:54:38.986Z,8.40
2019-02-04T13:57:12.414Z,8.47
2019-02-04T13:59:45.915Z,8.57
2019-02-04T14:02:19.280Z,11.50
2019-02-04T14:04:52.630Z,8.07
2019-02-04T14:07:26.100Z,6.40
2019-02-04T14:09:59.868Z,6.50
2019-02-04T14:12:33.194Z,6.20
2019-02-04T14:15:09.286Z,5.83
2019-02-04T14:17:42.617Z,6.43
2019-02-04T14:20:24.639Z,6.17
2019-02-04T14:22:58.062Z,6.40
2019-02-04T14:25:31.658Z,6.50
2019-02-04T14:28:05.701Z,6.63
2019-02-04T14:30:40.311Z,7.00
2019-02-04T14:33:13.640Z,6.07
2019-02-04T14:35:47.055Z,6.30
2019-02-04T14:38:20.441Z,6.73
2019-02-04T14:40:54.294Z,6.63
2019-02-04T14:43:30.358Z,6.70
2019-02-04T14:46:12.634Z,6.53
2019-02-04T14:48:52.041Z,7.27
2019-02-04T14:51:49.663Z,6.97
2019-02-04T14:54:45.727Z,6.83
2019-02-04T14:57:37.256Z,6.97
2019-02-04T15:00:35.125Z,6.67
2019-02-04T15:03:23.334Z,6.60
2019-02-04T15:06:08.913Z,6.93
2019-02-04T15:09:04.665Z,6.80
2019-02-04T15:11:50.272Z,6.53
2019-02-04T15:14:32.551Z,7.57
2019-02-04T15:17:12.294Z,7.30
2019-02-04T15:20:00.466Z,7.10
2019-02-04T15:22:49.299Z,7.37
2019-02-04T15:25:38.253Z,6.77
2019-02-04T15:28:17.625Z,6.30
2019-02-04T15:31:12.316Z,6.33
2019-02-04T15:33:52.071Z,6.40
2019-02-04T15:36:31.651Z,6.17
2019-02-04T15:39:11.385Z,6.17
2019-02-04T15:41:47.941Z,5.97
2019-02-04T15:44:59.167Z,6.17
2019-02-04T15:47:35.699Z,6.53
2019-02-04T15:50:18.249Z,6.47
2019-02-04T15:52:51.952Z,8.60
2019-02-04T15:55:25.726Z,7.87
2019-02-04T15:57:59.089Z,6.27
2019-02-04T16:00:32.497Z,6.17
2019-02-04T16:03:06.357Z,5.70
2019-02-04T16:05:39.683Z,6.03
2019-02-04T16:08:15.684Z,6.77
2019-02-04T16:10:49.009Z,6.73
2019-02-04T16:13:22.582Z,6.30
2019-02-04T16:15:56.571Z,7.00
2019-02-04T16:18:30.152Z,7.03
2019-02-04T16:21:03.646Z,6.77
2019-02-04T16:23:36.964Z,7.03
2019-02-04T16:26:10.431Z,8.00
2019-02-04T16:28:43.795Z,7.63
2019-02-04T16:31:17.129Z,8.17
2019-02-04T16:33:50.490Z,9.03
2019-02-04T16:36:24.192Z,8.50
2019-02-04T16:38:57.628Z,7.60
2019-02-04T16:41:30.940Z,9.00
2019-02-04T16:44:04.641Z,10.43
2019-02-04T16:46:38.035Z,9.57
2019-02-04T16:49:11.412Z,16.57
2019-02-04T16:51:45.078Z,18.53
2019-02-04T16:54:18.435Z,17.80
2019-02-04T16:56:51.839Z,19.87
2019-02-04T16:59:25.636Z,11.30
2019-02-04T17:01:58.964Z,10.27
2019-02-04T17:04:32.323Z,9.17
2019-02-04T17:07:05.928Z,10.40
2019-02-04T17:09:39.282Z,9.53
2019-02-04T17:12:12.604Z,9.43
2019-02-04T17:14:46.038Z,12.63
2019-02-04T17:17:19.425Z,9.40
2019-02-04T17:19:52.784Z,10.57
2019-02-04T17:22:26.361Z,10.67
2019-02-04T17:24:59.732Z,9.20
2019-02-04T17:27:33.070Z,9.33
2019-02-04T17:30:18.177Z,11.07
2019-02-04T17:32:51.598Z,14.87
2019-02-04T17:35:25.403Z,10.37
2019-02-04T17:37:58.830Z,9.77
2019-02-04T17:40:32.220Z,9.37
2019-02-04T17:43:07.020Z,9.80
2019-02-04T17:45:40.418Z,10.97
2019-02-04T17:48:13.923Z,9.43
2019-02-04T17:50:47.246Z,9.33
2019-02-04T17:53:20.874Z,9.53
2019-02-04T17:55:54.205Z,9.10
2019-02-04T17:58:27.556Z,8.90
2019-02-04T18:01:01.022Z,9.10
2019-02-04T18:03:34.436Z,9.37
2019-02-04T18:06:07.754Z,8.07
2019-02-04T18:08:41.145Z,8.60
2019-02-04T18:11:14.478Z,9.33
2019-02-04T18:13:47.836Z,11.37
2019-02-04T18:16:21.542Z,10.27
2019-02-04T18:18:54.970Z,9.40
2019-02-04T18:21:28.365Z,8.13
2019-02-04T18:24:01.715Z,7.97
2019-02-04T18:26:35.034Z,8.10
2019-02-04T18:29:08.452Z,8.67
2019-02-04T18:31:41.782Z,8.50
2019-02-04T18:34:15.139Z,8.00
2019-02-04T18:36:48.463Z,7.10
2019-02-04T18:39:21.931Z,7.03
2019-02-04T18:41:55.736Z,7.87
2019-02-04T18:44:29.148Z,6.90
2019-02-04T18:47:02.532Z,7.63
2019-02-04T18:49:35.879Z,8.93
2019-02-04T18:52:09.351Z,12.00
2019-02-04T18:54:43.080Z,7.30
2019-02-04T18:57:16.420Z,12.80
2019-02-04T18:59:49.773Z,10.00
2019-02-04T19:02:23.109Z,9.23
2019-02-04T19:04:56.460Z,6.10
2019-02-04T19:07:29.780Z,8.47
2019-02-04T19:10:05.246Z,14.83
2019-02-04T19:12:38.568Z,12.93
2019-02-04T19:15:17.259Z,8.37
2019-02-04T19:17:50.911Z,8.40
2019-02-04T19:20:24.710Z,14.07
2019-02-04T19:22:58.036Z,8.70
2019-02-04T19:25:33.296Z,6.97
2019-02-04T19:28:07.166Z,6.30
2019-02-04T19:30:47.155Z,7.30
2019-02-04T19:33:20.477Z,7.57
2019-02-04T19:35:53.900Z,6.60
2019-02-04T19:38:27.279Z,7.30
2019-02-04T19:41:01.009Z,6.33
2019-02-04T19:43:34.335Z,7.10
2019-02-04T19:46:07.703Z,6.87
2019-02-04T19:48:42.955Z,7.17
2019-02-04T19:51:17.985Z,7.00
2019-02-04T19:53:51.302Z,7.80
2019-02-04T19:56:24.815Z,6.77
2019-02-04T19:58:58.201Z,7.27
2019-02-04T20:01:31.567Z,7.30
2019-02-04T20:04:05.539Z,7.17
2019-02-04T20:06:39.363Z,7.50
2019-02-04T20:09:12.961Z,7.57
2019-02-04T20:11:46.492Z,7.57
2019-02-04T20:14:20.513Z,7.03
2019-02-04T20:16:54.288Z,7.80
2019-02-04T20:19:28.053Z,7.67
2019-02-04T20:22:01.377Z,8.53
2019-02-04T20:24:34.926Z,8.53
2019-02-04T20:27:08.379Z,8.97
2019-02-04T20:29:41.812Z,10.50
2019-02-04T20:32:15.198Z,10.20
2019-02-04T20:34:48.639Z,8.77
2019-02-04T20:37:22.513Z,8.23
2019-02-04T20:39:55.909Z,8.00
2019-02-04T20:42:29.264Z,8.83
2019-02-04T20:45:02.797Z,8.97
2019-02-04T20:47:36.186Z,8.63
2019-02-04T20:50:18.503Z,9.00
2019-02-04T20:52:51.831Z,8.13
2019-02-04T20:55:25.320Z,8.27
2019-02-04T20:57:58.640Z,7.83
2019-02-04T21:00:32.558Z,8.37
2019-02-04T21:03:05.946Z,8.30
2019-02-04T21:05:39.289Z,7.50
2019-02-04T21:08:12.688Z,7.37
2019-02-04T21:10:46.042Z,7.97
2019-02-04T21:13:19.373Z,7.37
2019-02-04T21:15:52.722Z,8.17
2019-02-04T21:18:26.042Z,7.43
2019-02-04T21:20:59.383Z,7.60
2019-02-04T21:23:32.706Z,7.93
2019-02-04T21:26:07.064Z,8.17
2019-02-04T21:28:40.566Z,8.23
2019-02-04T21:31:13.977Z,7.80
2019-02-04T21:33:47.297Z,7.57
2019-02-04T21:36:20.653Z,7.37
2019-02-04T21:38:54.062Z,7.77
2019-02-04T21:41:27.404Z,7.50
2019-02-04T21:44:01.107Z,7.47
2019-02-04T21:46:34.474Z,7.37
2019-02-04T21:49:07.866Z,7.00
2019-02-04T21:51:41.229Z,7.17
2019-02-04T21:54:14.551Z,7.10
2019-02-04T21:56:48.092Z,7.10
2019-02-04T21:59:21.426Z,5.57
2019-02-04T22:01:54.779Z,6.30
2019-02-04T22:04:28.109Z,5.90
2019-02-04T22:07:01.609Z,6.07
2019-02-04T22:09:34.930Z,7.00
2019-02-04T22:12:08.297Z,6.23
2019-02-04T22:14:41.616Z,6.43
2019-02-04T22:17:14.984Z,7.50
2019-02-04T22:19:48.311Z,6.80
2019-02-04T22:22:21.935Z,6.70
2019-02-04T22:24:55.359Z,7.27
2019-02-04T22:27:29.159Z,9.83
2019-02-04T22:30:02.484Z,10.63
2019-02-04T22:32:36.209Z,8.90
2019-02-04T22:35:09.674Z,6.97
2019-02-04T22:37:43.180Z,6.60
2019-02-04T22:40:19.039Z,6.50
2019-02-04T22:42:52.454Z,6.87
2019-02-04T22:45:25.861Z,6.87
2019-02-04T22:47:59.222Z,5.90
2019-02-04T22:50:32.613Z,6.07
2019-02-04T22:53:07.009Z,5.43
2019-02-04T22:55:40.429Z,6.93
2019-02-04T22:58:13.756Z,7.03
2019-02-04T23:00:53.119Z,6.60
2019-02-04T23:03:28.274Z,6.40
2019-02-04T23:06:01.693Z,5.53
2019-02-04T23:08:35.012Z,6.17
2019-02-04T23:11:08.415Z,6.73
2019-02-04T23:13:42.137Z,5.40
2019-02-04T23:16:15.559Z,6.67
2019-02-04T23:18:48.955Z,6.40
2019-02-04T23:21:22.372Z,5.77
2019-02-04T23:23:56.078Z,5.40
2019-02-04T23:26:29.430Z,5.77
2019-02-04T23:29:02.747Z,5.70
2019-02-04T23:31:36.091Z,5.80
2019-02-04T23:34:09.485Z,5.87
2019-02-04T23:36:42.849Z,6.03
2019-02-04T23:39:16.198Z,5.37
2019-02-04T23:41:49.550Z,5.70
2019-02-04T23:44:22.883Z,6.50
2019-02-04T23:46:56.506Z,5.47
2019-02-04T23:49:29.859Z,5.47
2019-02-04T23:52:03.240Z,5.90
2019-02-04T23:54:36.653Z,5.40
2019-02-04T23:57:10.083Z,6.07
2019-02-04T23:59:43.440Z,6.07
